Tianjin, China
Current Conditions -  °F | °C
As of 10:30 PM on Tuesday 27 Jan 2015 (Local Time) from ZBTJ Reporting Station
Clear Clear  
Wind Chill: 17°   Ceiling: Unl
Heat Index: 25°   Visibility: 5mi
Dew Point:   Wind: 7mph
Humidity: 43%   Direction: 240°WSW
Pressure: 30.62"   Gusts: NA
Location:  39.13°N, 117.2°E
Report Text: ZBTJ 271430Z 24003MPS 8000 NSC M04/M15 Q1037 NOSIG
Loading
Personal Weather Stations






























Interactive Weather Map New forecast layout! Learn more

10-Day Weather Forecast

Advertisements
Track Severe Weather on mobile